sensor_id;sensor_type;location;lat;lon;timestamp;pressure;altitude;pressure_sealevel;temperature;humidity
72438;BME280;60444;43.534;-5.674;2024-02-15T00:02:15;101203.66;;;14.51;100.00
72438;BME280;60444;43.534;-5.674;2024-02-15T00:04:40;101174.44;;;14.39;100.00
72438;BME280;60444;43.534;-5.674;2024-02-15T00:07:06;101185.75;;;14.47;100.00
72438;BME280;60444;43.534;-5.674;2024-02-15T00:09:31;101222.25;;;14.59;100.00
72438;BME280;60444;43.534;-5.674;2024-02-15T00:11:57;101189.28;;;14.49;100.00
72438;BME280;60444;43.534;-5.674;2024-02-15T00:14:25;101197.44;;;14.49;100.00
72438;BME280;60444;43.534;-5.674;2024-02-15T00:16:51;101188.41;;;14.49;100.00
72438;BME280;60444;43.534;-5.674;2024-02-15T00:19:17;101209.34;;;14.63;100.00
72438;BME280;60444;43.534;-5.674;2024-02-15T00:21:43;101209.34;;;14.63;100.00
72438;BME280;60444;43.534;-5.674;2024-02-15T00:24:09;101174.78;;;14.49;100.00
72438;BME280;60444;43.534;-5.674;2024-02-15T00:26:35;101199.63;;;14.59;100.00
72438;BME280;60444;43.534;-5.674;2024-02-15T00:29:01;101185.38;;;14.53;100.00
72438;BME280;60444;43.534;-5.674;2024-02-15T00:31:27;101198.28;;;14.66;100.00
72438;BME280;60444;43.534;-5.674;2024-02-15T00:33:52;101170.44;;;14.61;100.00
72438;BME280;60444;43.534;-5.674;2024-02-15T00:36:19;101156.22;;;14.55;100.00
72438;BME280;60444;43.534;-5.674;2024-02-15T00:38:44;101146.91;;;14.60;100.00
72438;BME280;60444;43.534;-5.674;2024-02-15T00:41:10;101146.72;;;14.63;100.00
72438;BME280;60444;43.534;-5.674;2024-02-15T00:43:36;101127.06;;;14.57;100.00
72438;BME280;60444;43.534;-5.674;2024-02-15T00:46:01;101139.25;;;14.66;100.00
72438;BME280;60444;43.534;-5.674;2024-02-15T00:48:27;101121.25;;;14.64;100.00
72438;BME280;60444;43.534;-5.674;2024-02-15T00:50:55;101109.38;;;14.65;100.00
72438;BME280;60444;43.534;-5.674;2024-02-15T00:53:21;101113.94;;;14.64;100.00
72438;BME280;60444;43.534;-5.674;2024-02-15T00:55:46;101119.03;;;14.70;100.00
72438;BME280;60444;43.534;-5.674;2024-02-15T00:58:12;101117.97;;;14.73;100.00
72438;BME280;60444;43.534;-5.674;2024-02-15T01:00:37;101106.31;;;14.71;100.00
72438;BME280;60444;43.534;-5.674;2024-02-15T01:03:04;101101.75;;;14.71;100.00
72438;BME280;60444;43.534;-5.674;2024-02-15T01:05:29;101096.28;;;14.71;100.00
72438;BME280;60444;43.534;-5.674;2024-02-15T01:07:56;101107.25;;;14.70;100.00
72438;BME280;60444;43.534;-5.674;2024-02-15T01:10:22;101110.41;;;14.78;100.00
72438;BME280;60444;43.534;-5.674;2024-02-15T01:12:49;101093.75;;;14.68;100.00
72438;BME280;60444;43.534;-5.674;2024-02-15T01:15:15;101104.06;;;14.77;100.00
72438;BME280;60444;43.534;-5.674;2024-02-15T01:17:46;101071.94;;;14.54;100.00
72438;BME280;60444;43.534;-5.674;2024-02-15T01:20:11;101103.47;;;14.72;100.00
72438;BME280;60444;43.534;-5.674;2024-02-15T01:22:37;101085.09;;;14.62;100.00
72438;BME280;60444;43.534;-5.674;2024-02-15T01:25:03;101084.56;;;14.55;100.00
72438;BME280;60444;43.534;-5.674;2024-02-15T01:27:28;101111.94;;;14.68;100.00
72438;BME280;60444;43.534;-5.674;2024-02-15T01:29:56;101066.94;;;14.46;100.00
72438;BME280;60444;43.534;-5.674;2024-02-15T01:32:22;101082.13;;;14.50;100.00
72438;BME280;60444;43.534;-5.674;2024-02-15T01:34:48;101099.66;;;14.61;100.00
72438;BME280;60444;43.534;-5.674;2024-02-15T01:37:13;101102.56;;;14.57;100.00
72438;BME280;60444;43.534;-5.674;2024-02-15T01:39:39;101083.38;;;14.45;100.00
72438;BME280;60444;43.534;-5.674;2024-02-15T01:42:05;101079.00;;;14.42;100.00
72438;BME280;60444;43.534;-5.674;2024-02-15T01:44:31;101082.50;;;14.44;100.00
72438;BME280;60444;43.534;-5.674;2024-02-15T01:46:57;101079.19;;;14.39;100.00
72438;BME280;60444;43.534;-5.674;2024-02-15T01:49:24;101099.44;;;14.49;100.00
72438;BME280;60444;43.534;-5.674;2024-02-15T01:51:53;101095.75;;;14.50;100.00
72438;BME280;60444;43.534;-5.674;2024-02-15T01:54:20;101056.03;;;14.32;100.00
72438;BME280;60444;43.534;-5.674;2024-02-15T01:56:46;101067.94;;;14.45;100.00
72438;BME280;60444;43.534;-5.674;2024-02-15T01:59:15;101044.88;;;14.37;100.00
72438;BME280;60444;43.534;-5.674;2024-02-15T02:01:41;101035.84;;;14.36;100.00
72438;BME280;60444;43.534;-5.674;2024-02-15T02:04:07;101037.66;;;14.36;100.00
72438;BME280;60444;43.534;-5.674;2024-02-15T02:06:34;101033.91;;;14.38;100.00
72438;BME280;60444;43.534;-5.674;2024-02-15T02:09:00;101040.88;;;14.42;100.00
72438;BME280;60444;43.534;-5.674;2024-02-15T02:11:27;101050.81;;;14.43;100.00
72438;BME280;60444;43.534;-5.674;2024-02-15T02:13:55;101047.09;;;14.44;100.00
72438;BME280;60444;43.534;-5.674;2024-02-15T02:16:30;101042.66;;;14.43;100.00
72438;BME280;60444;43.534;-5.674;2024-02-15T02:19:01;101045.38;;;14.43;100.00
72438;BME280;60444;43.534;-5.674;2024-02-15T02:21:28;101046.31;;;14.42;100.00
72438;BME280;60444;43.534;-5.674;2024-02-15T02:23:57;101011.25;;;14.38;100.00
72438;BME280;60444;43.534;-5.674;2024-02-15T02:26:24;101002.09;;;14.39;100.00
72438;BME280;60444;43.534;-5.674;2024-02-15T02:28:50;101021.84;;;14.42;100.00
72438;BME280;60444;43.534;-5.674;2024-02-15T02:31:19;101017.28;;;14.43;100.00
72438;BME280;60444;43.534;-5.674;2024-02-15T02:33:52;101003.97;;;14.38;100.00
72438;BME280;60444;43.534;-5.674;2024-02-15T02:36:21;100997.06;;;14.33;100.00
72438;BME280;60444;43.534;-5.674;2024-02-15T02:38:47;101018.94;;;14.45;100.00
72438;BME280;60444;43.534;-5.674;2024-02-15T02:41:16;101025.44;;;14.43;100.00
72438;BME280;60444;43.534;-5.674;2024-02-15T02:43:41;101024.38;;;14.45;100.00
72438;BME280;60444;43.534;-5.674;2024-02-15T02:46:10;101022.44;;;14.47;100.00
72438;BME280;60444;43.534;-5.674;2024-02-15T02:48:36;101015.25;;;14.46;100.00
72438;BME280;60444;43.534;-5.674;2024-02-15T02:51:02;101008.22;;;14.42;100.00
72438;BME280;60444;43.534;-5.674;2024-02-15T02:53:28;101012.81;;;14.42;100.00
72438;BME280;60444;43.534;-5.674;2024-02-15T02:55:55;101000.84;;;14.44;100.00
72438;BME280;60444;43.534;-5.674;2024-02-15T02:58:21;101011.25;;;14.52;100.00
72438;BME280;60444;43.534;-5.674;2024-02-15T03:00:48;100974.81;;;14.40;100.00
72438;BME280;60444;43.534;-5.674;2024-02-15T03:03:16;101007.97;;;14.61;100.00
72438;BME280;60444;43.534;-5.674;2024-02-15T03:05:41;100991.72;;;14.60;100.00
72438;BME280;60444;43.534;-5.674;2024-02-15T03:08:14;100996.69;;;14.67;100.00
72438;BME280;60444;43.534;-5.674;2024-02-15T03:10:40;100984.34;;;14.62;100.00
72438;BME280;60444;43.534;-5.674;2024-02-15T03:13:06;100988.63;;;14.66;100.00
72438;BME280;60444;43.534;-5.674;2024-02-15T03:15:33;100994.88;;;14.68;100.00
72438;BME280;60444;43.534;-5.674;2024-02-15T03:17:59;100984.25;;;14.63;100.00
72438;BME280;60444;43.534;-5.674;2024-02-15T03:20:25;100980.47;;;14.66;100.00
72438;BME280;60444;43.534;-5.674;2024-02-15T03:25:16;100960.91;;;14.73;100.00
72438;BME280;60444;43.534;-5.674;2024-02-15T03:27:42;100938.63;;;14.67;100.00
72438;BME280;60444;43.534;-5.674;2024-02-15T03:30:08;100918.63;;;14.68;100.00
72438;BME280;60444;43.534;-5.674;2024-02-15T03:32:35;100898.97;;;14.63;100.00
72438;BME280;60444;43.534;-5.674;2024-02-15T03:35:02;100926.66;;;14.83;100.00
72438;BME280;60444;43.534;-5.674;2024-02-15T03:37:28;100922.72;;;14.75;100.00
72438;BME280;60444;43.534;-5.674;2024-02-15T03:39:54;100938.34;;;14.85;100.00
72438;BME280;60444;43.534;-5.674;2024-02-15T03:42:20;100925.59;;;14.72;100.00
72438;BME280;60444;43.534;-5.674;2024-02-15T03:44:46;100958.28;;;14.86;100.00
72438;BME280;60444;43.534;-5.674;2024-02-15T03:47:13;100948.84;;;14.77;100.00
72438;BME280;60444;43.534;-5.674;2024-02-15T03:49:40;100953.44;;;14.77;100.00
72438;BME280;60444;43.534;-5.674;2024-02-15T03:52:08;100957.69;;;14.81;100.00
72438;BME280;60444;43.534;-5.674;2024-02-15T03:54:36;100956.16;;;14.77;100.00
72438;BME280;60444;43.534;-5.674;2024-02-15T03:57:01;100953.22;;;14.80;100.00
72438;BME280;60444;43.534;-5.674;2024-02-15T03:59:27;100969.75;;;14.91;100.00
72438;BME280;60444;43.534;-5.674;2024-02-15T04:01:53;100927.16;;;14.76;100.00
72438;BME280;60444;43.534;-5.674;2024-02-15T04:04:19;100929.28;;;14.85;100.00
72438;BME280;60444;43.534;-5.674;2024-02-15T04:06:49;100922.88;;;14.86;100.00
72438;BME280;60444;43.534;-5.674;2024-02-15T04:09:15;100893.59;;;14.75;100.00
72438;BME280;60444;43.534;-5.674;2024-02-15T04:11:40;100907.63;;;14.83;100.00
72438;BME280;60444;43.534;-5.674;2024-02-15T04:14:06;100908.06;;;14.90;100.00
72438;BME280;60444;43.534;-5.674;2024-02-15T04:16:31;100881.53;;;14.79;100.00
72438;BME280;60444;43.534;-5.674;2024-02-15T04:18:59;100879.22;;;14.87;100.00
72438;BME280;60444;43.534;-5.674;2024-02-15T04:21:24;100876.59;;;14.86;100.00
72438;BME280;60444;43.534;-5.674;2024-02-15T04:23:53;100888.22;;;14.88;100.00
72438;BME280;60444;43.534;-5.674;2024-02-15T04:26:19;100875.88;;;14.82;100.00
72438;BME280;60444;43.534;-5.674;2024-02-15T04:28:45;100876.88;;;14.81;100.00
72438;BME280;60444;43.534;-5.674;2024-02-15T04:31:17;100851.13;;;14.73;100.00
72438;BME280;60444;43.534;-5.674;2024-02-15T04:33:43;100851.91;;;14.75;100.00
72438;BME280;60444;43.534;-5.674;2024-02-15T04:36:08;100868.59;;;14.83;100.00
72438;BME280;60444;43.534;-5.674;2024-02-15T04:38:34;100842.41;;;14.68;100.00
72438;BME280;60444;43.534;-5.674;2024-02-15T04:41:03;100834.69;;;14.74;100.00
72438;BME280;60444;43.534;-5.674;2024-02-15T04:43:35;100841.31;;;14.70;100.00
72438;BME280;60444;43.534;-5.674;2024-02-15T04:46:03;100868.50;;;14.84;100.00
72438;BME280;60444;43.534;-5.674;2024-02-15T04:48:32;100861.03;;;14.74;100.00
72438;BME280;60444;43.534;-5.674;2024-02-15T04:50:59;100864.06;;;14.69;100.00
72438;BME280;60444;43.534;-5.674;2024-02-15T04:53:25;100879.59;;;14.81;100.00
72438;BME280;60444;43.534;-5.674;2024-02-15T04:55:50;100846.28;;;14.64;100.00
72438;BME280;60444;43.534;-5.674;2024-02-15T04:58:16;100828.59;;;14.57;100.00
72438;BME280;60444;43.534;-5.674;2024-02-15T05:00:41;100834.41;;;14.65;100.00
72438;BME280;60444;43.534;-5.674;2024-02-15T05:03:07;100855.31;;;14.78;100.00
72438;BME280;60444;43.534;-5.674;2024-02-15T05:05:33;100833.81;;;14.74;100.00
72438;BME280;60444;43.534;-5.674;2024-02-15T05:07:58;100828.78;;;14.68;100.00
72438;BME280;60444;43.534;-5.674;2024-02-15T05:10:26;100846.25;;;14.78;100.00
72438;BME280;60444;43.534;-5.674;2024-02-15T05:12:52;100831.28;;;14.71;100.00
72438;BME280;60444;43.534;-5.674;2024-02-15T05:15:19;100830.00;;;14.76;100.00
72438;BME280;60444;43.534;-5.674;2024-02-15T05:17:48;100803.50;;;14.66;100.00
72438;BME280;60444;43.534;-5.674;2024-02-15T05:20:15;100783.38;;;14.54;100.00
72438;BME280;60444;43.534;-5.674;2024-02-15T05:22:41;100807.56;;;14.73;100.00
72438;BME280;60444;43.534;-5.674;2024-02-15T05:25:10;100774.94;;;14.59;100.00
72438;BME280;60444;43.534;-5.674;2024-02-15T05:27:37;100790.94;;;14.63;100.00
72438;BME280;60444;43.534;-5.674;2024-02-15T05:30:04;100763.63;;;14.65;100.00
72438;BME280;60444;43.534;-5.674;2024-02-15T05:32:36;100765.38;;;14.66;100.00
72438;BME280;60444;43.534;-5.674;2024-02-15T05:35:10;100766.00;;;14.57;100.00
72438;BME280;60444;43.534;-5.674;2024-02-15T05:37:37;100774.50;;;14.65;100.00
72438;BME280;60444;43.534;-5.674;2024-02-15T05:40:03;100778.31;;;14.62;100.00
72438;BME280;60444;43.534;-5.674;2024-02-15T05:42:30;100759.00;;;14.52;100.00
72438;BME280;60444;43.534;-5.674;2024-02-15T05:44:56;100763.78;;;14.49;100.00
72438;BME280;60444;43.534;-5.674;2024-02-15T05:47:39;100760.16;;;14.48;100.00
72438;BME280;60444;43.534;-5.674;2024-02-15T05:50:06;100760.28;;;14.47;100.00
72438;BME280;60444;43.534;-5.674;2024-02-15T05:52:32;100747.53;;;14.47;100.00
72438;BME280;60444;43.534;-5.674;2024-02-15T05:54:57;100766.06;;;14.55;100.00
72438;BME280;60444;43.534;-5.674;2024-02-15T05:57:23;100758.50;;;14.46;100.00
72438;BME280;60444;43.534;-5.674;2024-02-15T05:59:48;100766.66;;;14.46;100.00
72438;BME280;60444;43.534;-5.674;2024-02-15T06:02:14;100750.44;;;14.44;100.00
72438;BME280;60444;43.534;-5.674;2024-02-15T06:04:41;100761.34;;;14.44;100.00
72438;BME280;60444;43.534;-5.674;2024-02-15T06:07:06;100771.16;;;14.47;100.00
72438;BME280;60444;43.534;-5.674;2024-02-15T06:09:35;100753.50;;;14.40;100.00
72438;BME280;60444;43.534;-5.674;2024-02-15T06:12:02;100734.16;;;14.30;100.00
72438;BME280;60444;43.534;-5.674;2024-02-15T06:14:28;100751.53;;;14.42;100.00
72438;BME280;60444;43.534;-5.674;2024-02-15T06:16:53;100748.94;;;14.40;100.00
72438;BME280;60444;43.534;-5.674;2024-02-15T06:19:20;100745.59;;;14.35;100.00
72438;BME280;60444;43.534;-5.674;2024-02-15T06:21:47;100744.66;;;14.36;100.00
72438;BME280;60444;43.534;-5.674;2024-02-15T06:24:12;100741.94;;;14.36;100.00
72438;BME280;60444;43.534;-5.674;2024-02-15T06:26:39;100729.50;;;14.32;100.00
72438;BME280;60444;43.534;-5.674;2024-02-15T06:29:05;100730.38;;;14.33;100.00
72438;BME280;60444;43.534;-5.674;2024-02-15T06:32:03;100722.50;;;14.28;100.00
72438;BME280;60444;43.534;-5.674;2024-02-15T06:34:47;100713.75;;;14.23;100.00
72438;BME280;60444;43.534;-5.674;2024-02-15T06:37:37;100712.69;;;14.26;100.00
72438;BME280;60444;43.534;-5.674;2024-02-15T06:40:21;100710.25;;;14.21;100.00
72438;BME280;60444;43.534;-5.674;2024-02-15T06:42:48;100716.66;;;14.20;100.00
72438;BME280;60444;43.534;-5.674;2024-02-15T06:45:15;100710.63;;;14.15;100.00
72438;BME280;60444;43.534;-5.674;2024-02-15T06:47:42;100728.03;;;14.27;100.00
72438;BME280;60444;43.534;-5.674;2024-02-15T06:50:14;100722.13;;;14.20;100.00
72438;BME280;60444;43.534;-5.674;2024-02-15T06:52:40;100714.34;;;14.14;100.00
72438;BME280;60444;43.534;-5.674;2024-02-15T06:55:07;100720.91;;;14.24;100.00
72438;BME280;60444;43.534;-5.674;2024-02-15T06:57:34;100686.84;;;14.05;100.00
72438;BME280;60444;43.534;-5.674;2024-02-15T07:00:06;100702.13;;;14.07;100.00
72438;BME280;60444;43.534;-5.674;2024-02-15T07:02:36;100720.91;;;14.24;100.00
72438;BME280;60444;43.534;-5.674;2024-02-15T07:05:01;100718.63;;;14.18;100.00
72438;BME280;60444;43.534;-5.674;2024-02-15T07:07:31;100699.75;;;14.15;100.00
72438;BME280;60444;43.534;-5.674;2024-02-15T07:09:57;100694.13;;;14.18;100.00
72438;BME280;60444;43.534;-5.674;2024-02-15T07:12:23;100713.94;;;14.34;100.00
72438;BME280;60444;43.534;-5.674;2024-02-15T07:14:48;100715.50;;;14.38;100.00
72438;BME280;60444;43.534;-5.674;2024-02-15T07:17:14;100696.06;;;14.30;100.00
72438;BME280;60444;43.534;-5.674;2024-02-15T07:19:43;100689.84;;;14.28;100.00
72438;BME280;60444;43.534;-5.674;2024-02-15T07:22:10;100719.66;;;14.44;100.00
72438;BME280;60444;43.534;-5.674;2024-02-15T07:24:36;100710.81;;;14.40;100.00
72438;BME280;60444;43.534;-5.674;2024-02-15T07:27:04;100695.69;;;14.36;100.00
72438;BME280;60444;43.534;-5.674;2024-02-15T07:29:30;100704.28;;;14.43;100.00
72438;BME280;60444;43.534;-5.674;2024-02-15T07:31:58;100689.47;;;14.34;100.00
72438;BME280;60444;43.534;-5.674;2024-02-15T07:34:26;100715.84;;;14.46;100.00
72438;BME280;60444;43.534;-5.674;2024-02-15T07:36:52;100720.22;;;14.49;100.00
72438;BME280;60444;43.534;-5.674;2024-02-15T07:39:17;100723.06;;;14.47;100.00
72438;BME280;60444;43.534;-5.674;2024-02-15T07:41:53;100686.94;;;14.31;100.00
72438;BME280;60444;43.534;-5.674;2024-02-15T07:44:20;100688.13;;;14.27;100.00
72438;BME280;60444;43.534;-5.674;2024-02-15T07:46:47;100702.28;;;14.32;100.00
72438;BME280;60444;43.534;-5.674;2024-02-15T07:49:13;100709.16;;;14.38;100.00
72438;BME280;60444;43.534;-5.674;2024-02-15T07:51:38;100699.34;;;14.35;100.00
72438;BME280;60444;43.534;-5.674;2024-02-15T07:54:04;100705.38;;;14.40;100.00
72438;BME280;60444;43.534;-5.674;2024-02-15T07:56:30;100700.34;;;14.34;100.00
72438;BME280;60444;43.534;-5.674;2024-02-15T07:58:55;100710.91;;;14.39;100.00
72438;BME280;60444;43.534;-5.674;2024-02-15T08:01:20;100717.59;;;14.47;100.00
72438;BME280;60444;43.534;-5.674;2024-02-15T08:03:46;100714.78;;;14.49;100.00
72438;BME280;60444;43.534;-5.674;2024-02-15T08:06:13;100712.06;;;14.49;100.00
72438;BME280;60444;43.534;-5.674;2024-02-15T08:08:40;100693.84;;;14.37;100.00
72438;BME280;60444;43.534;-5.674;2024-02-15T08:11:07;100710.22;;;14.49;100.00
72438;BME280;60444;43.534;-5.674;2024-02-15T08:13:44;100694.28;;;14.43;100.00
72438;BME280;60444;43.534;-5.674;2024-02-15T08:16:10;100685.63;;;14.51;100.00
72438;BME280;60444;43.534;-5.674;2024-02-15T08:18:38;100676.56;;;14.50;100.00
72438;BME280;60444;43.534;-5.674;2024-02-15T08:21:05;100654.72;;;14.65;100.00
72438;BME280;60444;43.534;-5.674;2024-02-15T08:23:30;100665.47;;;14.80;100.00
72438;BME280;60444;43.534;-5.674;2024-02-15T08:25:57;100661.53;;;14.97;100.00
72438;BME280;60444;43.534;-5.674;2024-02-15T08:28:23;100658.97;;;15.20;100.00
72438;BME280;60444;43.534;-5.674;2024-02-15T08:30:48;100641.75;;;15.20;100.00
72438;BME280;60444;43.534;-5.674;2024-02-15T08:33:14;100647.78;;;15.50;100.00
72438;BME280;60444;43.534;-5.674;2024-02-15T08:35:40;100641.44;;;15.62;100.00
72438;BME280;60444;43.534;-5.674;2024-02-15T08:38:06;100631.41;;;15.63;100.00
72438;BME280;60444;43.534;-5.674;2024-02-15T08:40:32;100631.91;;;15.80;100.00
72438;BME280;60444;43.534;-5.674;2024-02-15T08:42:58;100621.09;;;15.91;100.00
72438;BME280;60444;43.534;-5.674;2024-02-15T08:45:23;100593.47;;;15.96;100.00
72438;BME280;60444;43.534;-5.674;2024-02-15T08:47:49;100625.63;;;16.27;100.00
72438;BME280;60444;43.534;-5.674;2024-02-15T08:50:18;100624.81;;;16.37;100.00
72438;BME280;60444;43.534;-5.674;2024-02-15T08:52:44;100619.28;;;16.39;100.00
72438;BME280;60444;43.534;-5.674;2024-02-15T08:55:11;100606.66;;;16.25;100.00
72438;BME280;60444;43.534;-5.674;2024-02-15T08:57:40;100632.31;;;16.46;100.00
72438;BME280;60444;43.534;-5.674;2024-02-15T09:00:07;100627.31;;;16.53;100.00
72438;BME280;60444;43.534;-5.674;2024-02-15T09:02:43;100603.50;;;16.55;100.00
72438;BME280;60444;43.534;-5.674;2024-02-15T09:05:09;100600.31;;;16.72;100.00
72438;BME280;60444;43.534;-5.674;2024-02-15T09:07:35;100594.09;;;16.70;100.00
72438;BME280;60444;43.534;-5.674;2024-02-15T09:10:03;100613.41;;;16.91;100.00
72438;BME280;60444;43.534;-5.674;2024-02-15T09:12:28;100627.44;;;16.86;100.00
72438;BME280;60444;43.534;-5.674;2024-02-15T09:14:55;100623.09;;;16.84;100.00
72438;BME280;60444;43.534;-5.674;2024-02-15T09:17:21;100621.25;;;16.84;100.00
72438;BME280;60444;43.534;-5.674;2024-02-15T09:19:48;100626.84;;;16.94;100.00
72438;BME280;60444;43.534;-5.674;2024-02-15T09:22:16;100636.41;;;16.99;100.00
72438;BME280;60444;43.534;-5.674;2024-02-15T09:24:42;100630.56;;;16.93;100.00
72438;BME280;60444;43.534;-5.674;2024-02-15T09:27:07;100639.03;;;17.01;100.00
72438;BME280;60444;43.534;-5.674;2024-02-15T09:29:33;100639.16;;;16.99;100.00
72438;BME280;60444;43.534;-5.674;2024-02-15T09:31:58;100637.44;;;17.09;100.00
72438;BME280;60444;43.534;-5.674;2024-02-15T09:34:27;100622.75;;;16.99;100.00
72438;BME280;60444;43.534;-5.674;2024-02-15T09:36:52;100627.00;;;17.03;100.00
72438;BME280;60444;43.534;-5.674;2024-02-15T09:39:18;100639.81;;;17.14;100.00
72438;BME280;60444;43.534;-5.674;2024-02-15T09:41:43;100623.03;;;17.07;100.00
72438;BME280;60444;43.534;-5.674;2024-02-15T09:44:09;100643.06;;;17.30;100.00
72438;BME280;60444;43.534;-5.674;2024-02-15T09:46:38;100635.28;;;17.36;100.00
72438;BME280;60444;43.534;-5.674;2024-02-15T09:49:07;100638.22;;;17.33;100.00
72438;BME280;60444;43.534;-5.674;2024-02-15T09:51:33;100644.25;;;17.49;100.00
72438;BME280;60444;43.534;-5.674;2024-02-15T09:54:00;100648.22;;;17.56;100.00
72438;BME280;60444;43.534;-5.674;2024-02-15T09:56:27;100647.13;;;17.59;100.00
72438;BME280;60444;43.534;-5.674;2024-02-15T09:58:54;100665.19;;;17.73;100.00
72438;BME280;60444;43.534;-5.674;2024-02-15T10:01:23;100655.97;;;17.74;100.00
72438;BME280;60444;43.534;-5.674;2024-02-15T10:03:49;100658.06;;;17.81;100.00
72438;BME280;60444;43.534;-5.674;2024-02-15T10:06:19;100631.59;;;17.82;100.00
72438;BME280;60444;43.534;-5.674;2024-02-15T10:08:45;100647.13;;;17.92;100.00
72438;BME280;60444;43.534;-5.674;2024-02-15T10:11:12;100647.13;;;17.92;100.00
72438;BME280;60444;43.534;-5.674;2024-02-15T10:13:38;100646.25;;;18.03;100.00
72438;BME280;60444;43.534;-5.674;2024-02-15T10:16:17;100664.16;;;18.18;100.00
72438;BME280;60444;43.534;-5.674;2024-02-15T10:18:44;100648.97;;;18.14;100.00
72438;BME280;60444;43.534;-5.674;2024-02-15T10:21:10;100655.41;;;18.24;100.00
72438;BME280;60444;43.534;-5.674;2024-02-15T10:23:36;100656.28;;;18.24;100.00
72438;BME280;60444;43.534;-5.674;2024-02-15T10:26:19;100664.50;;;18.24;100.00
72438;BME280;60444;43.534;-5.674;2024-02-15T10:28:45;100631.69;;;18.02;100.00
72438;BME280;60444;43.534;-5.674;2024-02-15T10:31:12;100657.25;;;18.23;100.00
72438;BME280;60444;43.534;-5.674;2024-02-15T10:33:38;100631.19;;;17.97;100.00
72438;BME280;60444;43.534;-5.674;2024-02-15T10:36:06;100644.88;;;18.08;100.00
72438;BME280;60444;43.534;-5.674;2024-02-15T10:38:33;100608.56;;;17.95;100.00
72438;BME280;60444;43.534;-5.674;2024-02-15T10:41:06;100653.56;;;18.13;100.00
72438;BME280;60444;43.534;-5.674;2024-02-15T10:43:36;100616.34;;;18.11;100.00
72438;BME280;60444;43.534;-5.674;2024-02-15T10:46:04;100621.81;;;18.22;100.00
72438;BME280;60444;43.534;-5.674;2024-02-15T10:48:31;100591.59;;;18.12;100.00
72438;BME280;60444;43.534;-5.674;2024-02-15T10:51:01;100617.31;;;18.32;100.00
72438;BME280;60444;43.534;-5.674;2024-02-15T10:53:29;100616.31;;;18.33;100.00
72438;BME280;60444;43.534;-5.674;2024-02-15T10:58:32;100612.94;;;18.72;100.00
72438;BME280;60444;43.534;-5.674;2024-02-15T11:01:06;100594.41;;;18.76;100.00
72438;BME280;60444;43.534;-5.674;2024-02-15T11:03:37;100605.88;;;18.90;100.00
72438;BME280;60444;43.534;-5.674;2024-02-15T11:06:07;100607.78;;;18.90;100.00
72438;BME280;60444;43.534;-5.674;2024-02-15T11:08:34;100588.91;;;18.96;100.00
72438;BME280;60444;43.534;-5.674;2024-02-15T11:11:00;100597.59;;;19.01;100.00
72438;BME280;60444;43.534;-5.674;2024-02-15T11:13:29;100597.38;;;19.14;100.00
72438;BME280;60444;43.534;-5.674;2024-02-15T11:15:55;100588.25;;;19.04;100.00
72438;BME280;60444;43.534;-5.674;2024-02-15T11:18:43;100601.94;;;19.24;100.00
72438;BME280;60444;43.534;-5.674;2024-02-15T11:21:17;100605.03;;;19.31;100.00
72438;BME280;60444;43.534;-5.674;2024-02-15T11:23:44;100591.78;;;19.36;100.00
72438;BME280;60444;43.534;-5.674;2024-02-15T11:26:44;100610.88;;;19.26;100.00
72438;BME280;60444;43.534;-5.674;2024-02-15T11:32:45;100609.31;;;19.24;100.00
72438;BME280;60444;43.534;-5.674;2024-02-15T11:35:22;100600.34;;;19.42;100.00
72438;BME280;60444;43.534;-5.674;2024-02-15T11:40:19;100592.06;;;19.33;100.00
72438;BME280;60444;43.534;-5.674;2024-02-15T11:42:45;100579.72;;;19.27;100.00
72438;BME280;60444;43.534;-5.674;2024-02-15T11:45:15;100593.31;;;19.49;100.00
72438;BME280;60444;43.534;-5.674;2024-02-15T11:47:47;100587.84;;;19.59;100.00
72438;BME280;60444;43.534;-5.674;2024-02-15T11:50:17;100572.34;;;19.48;100.00
72438;BME280;60444;43.534;-5.674;2024-02-15T11:52:46;100561.22;;;19.50;100.00
72438;BME280;60444;43.534;-5.674;2024-02-15T11:55:17;100554.91;;;19.59;100.00
72438;BME280;60444;43.534;-5.674;2024-02-15T11:58:05;100556.03;;;19.47;100.00
72438;BME280;60444;43.534;-5.674;2024-02-15T12:00:38;100568.50;;;19.60;100.00
72438;BME280;60444;43.534;-5.674;2024-02-15T12:03:22;100559.22;;;19.52;100.00
72438;BME280;60444;43.534;-5.674;2024-02-15T12:06:07;100552.91;;;19.51;100.00
72438;BME280;60444;43.534;-5.674;2024-02-15T12:08:52;100567.84;;;19.78;100.00
72438;BME280;60444;43.534;-5.674;2024-02-15T12:11:36;100560.69;;;19.56;100.00
72438;BME280;60444;43.534;-5.674;2024-02-15T12:14:20;100564.66;;;19.73;100.00
72438;BME280;60444;43.534;-5.674;2024-02-15T12:17:06;100571.44;;;19.69;100.00
72438;BME280;60444;43.534;-5.674;2024-02-15T12:19:51;100550.34;;;19.69;100.00
72438;BME280;60444;43.534;-5.674;2024-02-15T12:25:01;100546.34;;;19.73;100.00
72438;BME280;60444;43.534;-5.674;2024-02-15T12:27:31;100549.13;;;19.92;100.00
72438;BME280;60444;43.534;-5.674;2024-02-15T12:29:57;100523.47;;;19.63;100.00
72438;BME280;60444;43.534;-5.674;2024-02-15T12:32:27;100545.59;;;19.71;100.00
72438;BME280;60444;43.534;-5.674;2024-02-15T12:35:13;100539.81;;;19.74;100.00
72438;BME280;60444;43.534;-5.674;2024-02-15T12:38:00;100551.97;;;19.81;100.00
72438;BME280;60444;43.534;-5.674;2024-02-15T12:40:35;100531.09;;;19.59;100.00
72438;BME280;60444;43.534;-5.674;2024-02-15T12:43:01;100554.97;;;19.69;100.00
72438;BME280;60444;43.534;-5.674;2024-02-15T12:45:31;100548.69;;;19.57;100.00
72438;BME280;60444;43.534;-5.674;2024-02-15T12:47:57;100546.09;;;19.25;100.00
72438;BME280;60444;43.534;-5.674;2024-02-15T12:50:27;100535.63;;;19.10;100.00